sensor_id;sensor_type;location;lat;lon;timestamp;pressure;altitude;pressure_sealevel;temperature;humidity
69911;BME280;63555;49.920;17.868;2024-03-08T00:00:00;99274.94;;;0.67;86.43
69911;BME280;63555;49.920;17.868;2024-03-08T00:05:09;99271.91;;;0.51;86.49
69911;BME280;63555;49.920;17.868;2024-03-08T00:10:12;99275.78;;;0.35;86.06
69911;BME280;63555;49.920;17.868;2024-03-08T00:15:14;99277.13;;;0.17;86.01
69911;BME280;63555;49.920;17.868;2024-03-08T00:20:16;99263.78;;;-0.03;86.39
69911;BME280;63555;49.920;17.868;2024-03-08T00:25:17;99260.78;;;-0.22;85.72
69911;BME280;63555;49.920;17.868;2024-03-08T00:30:18;99252.53;;;-0.38;86.17
69911;BME280;63555;49.920;17.868;2024-03-08T00:35:19;99255.50;;;-0.54;86.01
69911;BME280;63555;49.920;17.868;2024-03-08T00:40:19;99250.66;;;-0.68;86.45
69911;BME280;63555;49.920;17.868;2024-03-08T00:45:19;99245.75;;;-0.80;86.57
69911;BME280;63555;49.920;17.868;2024-03-08T00:50:20;99254.56;;;-0.90;86.78
69911;BME280;63555;49.920;17.868;2024-03-08T00:55:20;99259.06;;;-0.99;86.24
69911;BME280;63555;49.920;17.868;2024-03-08T01:00:21;99252.38;;;-1.09;86.20
69911;BME280;63555;49.920;17.868;2024-03-08T01:05:22;99250.88;;;-1.20;86.98
69911;BME280;63555;49.920;17.868;2024-03-08T01:10:24;99250.94;;;-1.23;86.87
69911;BME280;63555;49.920;17.868;2024-03-08T01:15:24;99248.59;;;-1.36;85.78
69911;BME280;63555;49.920;17.868;2024-03-08T01:20:25;99240.19;;;-1.45;85.68
69911;BME280;63555;49.920;17.868;2024-03-08T01:25:25;99238.69;;;-1.57;86.40
69911;BME280;63555;49.920;17.868;2024-03-08T01:30:26;99230.22;;;-1.65;85.93
69911;BME280;63555;49.920;17.868;2024-03-08T01:35:26;99228.63;;;-1.72;85.94
69911;BME280;63555;49.920;17.868;2024-03-08T01:40:27;99223.69;;;-1.86;85.27
69911;BME280;63555;49.920;17.868;2024-03-08T01:45:27;99215.31;;;-1.99;85.60
69911;BME280;63555;49.920;17.868;2024-03-08T01:50:28;99220.53;;;-2.02;86.12
69911;BME280;63555;49.920;17.868;2024-03-08T01:55:28;99219.78;;;-2.08;86.39
69911;BME280;63555;49.920;17.868;2024-03-08T02:00:28;99216.47;;;-2.16;86.68
69911;BME280;63555;49.920;17.868;2024-03-08T02:05:30;99207.22;;;-2.28;86.41
69911;BME280;63555;49.920;17.868;2024-03-08T02:10:30;99210.69;;;-2.31;87.13
69911;BME280;63555;49.920;17.868;2024-03-08T02:15:56;99205.59;;;-2.34;87.21
69911;BME280;63555;49.920;17.868;2024-03-08T02:20:58;99207.28;;;-2.33;87.26
69911;BME280;63555;49.920;17.868;2024-03-08T02:25:59;99208.38;;;-2.46;87.84
69911;BME280;63555;49.920;17.868;2024-03-08T02:30:59;99217.94;;;-2.52;86.96
69911;BME280;63555;49.920;17.868;2024-03-08T02:36:00;99210.28;;;-2.59;87.10
69911;BME280;63555;49.920;17.868;2024-03-08T02:41:00;99209.50;;;-2.65;86.92
69911;BME280;63555;49.920;17.868;2024-03-08T02:46:01;99207.81;;;-2.68;87.29
69911;BME280;63555;49.920;17.868;2024-03-08T02:51:01;99197.59;;;-2.74;87.40
69911;BME280;63555;49.920;17.868;2024-03-08T02:56:02;99196.75;;;-2.76;87.29
69911;BME280;63555;49.920;17.868;2024-03-08T03:01:03;99194.16;;;-2.74;87.97
69911;BME280;63555;49.920;17.868;2024-03-08T03:06:03;99195.06;;;-2.77;87.94
69911;BME280;63555;49.920;17.868;2024-03-08T03:11:04;99189.03;;;-2.77;88.02
69911;BME280;63555;49.920;17.868;2024-03-08T03:16:04;99195.13;;;-2.81;87.86
69911;BME280;63555;49.920;17.868;2024-03-08T03:21:05;99195.19;;;-2.86;87.83
69911;BME280;63555;49.920;17.868;2024-03-08T03:26:08;99194.44;;;-2.93;87.64
69911;BME280;63555;49.920;17.868;2024-03-08T03:31:11;99179.88;;;-2.97;87.66
69911;BME280;63555;49.920;17.868;2024-03-08T03:36:14;99188.53;;;-3.01;87.42
69911;BME280;63555;49.920;17.868;2024-03-08T03:41:14;99187.69;;;-3.01;87.16
69911;BME280;63555;49.920;17.868;2024-03-08T03:46:15;99182.53;;;-3.01;87.78
69911;BME280;63555;49.920;17.868;2024-03-08T03:51:15;99186.91;;;-3.08;88.06
69911;BME280;63555;49.920;17.868;2024-03-08T03:56:16;99183.59;;;-3.16;88.30
69911;BME280;63555;49.920;17.868;2024-03-08T04:01:16;99193.09;;;-3.19;87.93
69911;BME280;63555;49.920;17.868;2024-03-08T04:06:17;99191.38;;;-3.19;88.75
69911;BME280;63555;49.920;17.868;2024-03-08T04:11:17;99188.75;;;-3.16;89.50
69911;BME280;63555;49.920;17.868;2024-03-08T04:16:18;99186.94;;;-3.09;89.94
69911;BME280;63555;49.920;17.868;2024-03-08T04:21:19;99186.84;;;-3.03;90.15
69911;BME280;63555;49.920;17.868;2024-03-08T04:26:19;99187.53;;;-2.92;90.80
69911;BME280;63555;49.920;17.868;2024-03-08T04:31:20;99193.31;;;-2.75;91.82
69911;BME280;63555;49.920;17.868;2024-03-08T04:36:22;99189.59;;;-2.55;92.40
69911;BME280;63555;49.920;17.868;2024-03-08T04:41:22;99182.44;;;-2.40;92.60
69911;BME280;63555;49.920;17.868;2024-03-08T04:46:23;99182.16;;;-2.23;92.74
69911;BME280;63555;49.920;17.868;2024-03-08T04:51:25;99180.22;;;-2.12;93.06
69911;BME280;63555;49.920;17.868;2024-03-08T04:56:25;99180.88;;;-1.99;93.01
69911;BME280;63555;49.920;17.868;2024-03-08T05:01:26;99180.69;;;-1.90;93.25
69911;BME280;63555;49.920;17.868;2024-03-08T05:06:26;99186.63;;;-1.85;93.08
69911;BME280;63555;49.920;17.868;2024-03-08T05:11:26;99181.38;;;-1.80;93.16
69911;BME280;63555;49.920;17.868;2024-03-08T05:16:27;99181.31;;;-1.77;92.88
69911;BME280;63555;49.920;17.868;2024-03-08T05:21:27;99190.75;;;-1.76;92.68
69911;BME280;63555;49.920;17.868;2024-03-08T05:26:29;99184.81;;;-1.80;92.79
69911;BME280;63555;49.920;17.868;2024-03-08T05:31:47;99192.44;;;-1.74;93.34
69911;BME280;63555;49.920;17.868;2024-03-08T05:36:48;99191.41;;;-1.64;93.65
69911;BME280;63555;49.920;17.868;2024-03-08T05:41:52;99192.94;;;-1.53;93.79
69911;BME280;63555;49.920;17.868;2024-03-08T05:46:52;99197.84;;;-1.41;93.72
69911;BME280;63555;49.920;17.868;2024-03-08T05:51:53;99195.06;;;-1.32;93.92
69911;BME280;63555;49.920;17.868;2024-03-08T05:56:54;99194.78;;;-1.18;93.78
69911;BME280;63555;49.920;17.868;2024-03-08T06:01:54;99200.72;;;-1.13;93.92
69911;BME280;63555;49.920;17.868;2024-03-08T06:06:56;99202.25;;;-1.05;93.86
69911;BME280;63555;49.920;17.868;2024-03-08T06:11:58;99207.25;;;-0.97;94.21
69911;BME280;63555;49.920;17.868;2024-03-08T06:16:58;99205.31;;;-0.86;93.78
69911;BME280;63555;49.920;17.868;2024-03-08T06:22:00;99209.44;;;-0.77;94.05
69911;BME280;63555;49.920;17.868;2024-03-08T06:27:03;99208.25;;;-0.64;94.49
69911;BME280;63555;49.920;17.868;2024-03-08T06:32:04;99212.22;;;-0.49;94.29
69911;BME280;63555;49.920;17.868;2024-03-08T06:37:04;99217.03;;;-0.34;94.60
69911;BME280;63555;49.920;17.868;2024-03-08T06:42:05;99216.19;;;-0.35;94.05
69911;BME280;63555;49.920;17.868;2024-03-08T06:47:05;99227.97;;;-0.23;94.27
69911;BME280;63555;49.920;17.868;2024-03-08T06:52:06;99217.34;;;-0.12;94.26
69911;BME280;63555;49.920;17.868;2024-03-08T06:57:09;99214.28;;;0.08;94.78
69911;BME280;63555;49.920;17.868;2024-03-08T07:02:10;99213.63;;;0.32;94.63
69911;BME280;63555;49.920;17.868;2024-03-08T07:07:10;99215.88;;;0.44;94.59
69911;BME280;63555;49.920;17.868;2024-03-08T07:12:11;99209.25;;;0.65;94.76
69911;BME280;63555;49.920;17.868;2024-03-08T07:17:13;99210.72;;;0.74;94.39
69911;BME280;63555;49.920;17.868;2024-03-08T07:22:14;99215.38;;;0.93;94.08
69911;BME280;63555;49.920;17.868;2024-03-08T07:27:14;99213.91;;;1.13;94.41
69911;BME280;63555;49.920;17.868;2024-03-08T07:32:15;99203.81;;;1.32;93.51
69911;BME280;63555;49.920;17.868;2024-03-08T07:37:21;99202.13;;;1.57;93.92
69911;BME280;63555;49.920;17.868;2024-03-08T07:42:21;99196.97;;;1.83;93.71
69911;BME280;63555;49.920;17.868;2024-03-08T07:47:25;99195.50;;;2.01;93.28
69911;BME280;63555;49.920;17.868;2024-03-08T07:52:26;99191.59;;;2.38;93.86
69911;BME280;63555;49.920;17.868;2024-03-08T07:57:26;99194.59;;;2.75;93.29
69911;BME280;63555;49.920;17.868;2024-03-08T08:02:27;99191.25;;;2.95;92.47
69911;BME280;63555;49.920;17.868;2024-03-08T08:07:27;99192.44;;;3.32;92.63
69911;BME280;63555;49.920;17.868;2024-03-08T08:12:28;99187.31;;;3.52;91.49
69911;BME280;63555;49.920;17.868;2024-03-08T08:17:29;99177.44;;;3.80;91.70
69911;BME280;63555;49.920;17.868;2024-03-08T08:22:29;99176.84;;;4.14;90.16
69911;BME280;63555;49.920;17.868;2024-03-08T08:27:30;99173.44;;;4.33;90.67
69911;BME280;63555;49.920;17.868;2024-03-08T08:32:30;99169.44;;;4.65;89.04
69911;BME280;63555;49.920;17.868;2024-03-08T08:37:31;99172.34;;;4.77;87.81
69911;BME280;63555;49.920;17.868;2024-03-08T08:42:32;99166.56;;;4.71;86.95
69911;BME280;63555;49.920;17.868;2024-03-08T08:47:32;99165.19;;;4.62;87.23
69911;BME280;63555;49.920;17.868;2024-03-08T08:52:33;99163.59;;;4.97;87.32
69911;BME280;63555;49.920;17.868;2024-03-08T08:57:34;99159.66;;;5.43;86.04
69911;BME280;63555;49.920;17.868;2024-03-08T09:02:35;99159.22;;;6.23;85.32
69911;BME280;63555;49.920;17.868;2024-03-08T09:07:37;99153.81;;;6.59;82.63
69911;BME280;63555;49.920;17.868;2024-03-08T09:12:38;99165.25;;;6.41;81.92
69911;BME280;63555;49.920;17.868;2024-03-08T09:17:40;99154.69;;;6.10;81.98
69911;BME280;63555;49.920;17.868;2024-03-08T09:22:44;99155.06;;;6.19;82.10
69911;BME280;63555;49.920;17.868;2024-03-08T09:27:45;99159.84;;;6.11;81.25
69911;BME280;63555;49.920;17.868;2024-03-08T09:32:46;99151.59;;;6.19;80.63
69911;BME280;63555;49.920;17.868;2024-03-08T09:37:47;99158.91;;;6.29;80.01
69911;BME280;63555;49.920;17.868;2024-03-08T09:42:51;99155.78;;;6.38;79.30
69911;BME280;63555;49.920;17.868;2024-03-08T09:47:52;99160.63;;;6.46;79.23
69911;BME280;63555;49.920;17.868;2024-03-08T09:52:55;99157.78;;;6.51;78.20
69911;BME280;63555;49.920;17.868;2024-03-08T09:57:58;99155.03;;;6.36;77.90
69911;BME280;63555;49.920;17.868;2024-03-08T10:03:20;99158.91;;;6.29;77.86
69911;BME280;63555;49.920;17.868;2024-03-08T10:08:20;99149.75;;;6.21;77.17
69911;BME280;63555;49.920;17.868;2024-03-08T10:13:20;99154.22;;;6.19;77.21
69911;BME280;63555;49.920;17.868;2024-03-08T10:18:21;99160.53;;;6.15;76.66
69911;BME280;63555;49.920;17.868;2024-03-08T10:23:22;99154.97;;;6.03;76.68
69911;BME280;63555;49.920;17.868;2024-03-08T10:28:23;99153.81;;;5.92;76.18
69911;BME280;63555;49.920;17.868;2024-03-08T10:33:25;99147.53;;;6.13;76.74
69911;BME280;63555;49.920;17.868;2024-03-08T10:38:31;99145.84;;;6.45;75.99
69911;BME280;63555;49.920;17.868;2024-03-08T10:48:57;99137.44;;;6.71;75.30
69911;BME280;63555;49.920;17.868;2024-03-08T10:53:59;99132.75;;;6.94;74.54
69911;BME280;63555;49.920;17.868;2024-03-08T10:59:00;99135.63;;;7.05;74.23
69911;BME280;63555;49.920;17.868;2024-03-08T11:04:04;99132.31;;;7.17;73.46
69911;BME280;63555;49.920;17.868;2024-03-08T11:09:27;99125.22;;;7.19;73.15
69911;BME280;63555;49.920;17.868;2024-03-08T11:14:44;99117.84;;;7.10;73.05
69911;BME280;63555;49.920;17.868;2024-03-08T11:19:48;99120.56;;;7.09;73.14
69911;BME280;63555;49.920;17.868;2024-03-08T11:24:49;99107.97;;;7.15;73.16
69911;BME280;63555;49.920;17.868;2024-03-08T11:30:03;99105.25;;;7.17;72.48
69911;BME280;63555;49.920;17.868;2024-03-08T11:35:21;99102.72;;;7.15;72.46
69911;BME280;63555;49.920;17.868;2024-03-08T11:40:23;99094.25;;;7.26;71.92
69911;BME280;63555;49.920;17.868;2024-03-08T11:45:23;99095.00;;;7.12;72.25
69911;BME280;63555;49.920;17.868;2024-03-08T11:50:25;99096.34;;;7.35;71.79
69911;BME280;63555;49.920;17.868;2024-03-08T11:55:27;99088.94;;;7.72;71.30
69911;BME280;63555;49.920;17.868;2024-03-08T12:00:29;99080.69;;;8.08;70.51
69911;BME280;63555;49.920;17.868;2024-03-08T12:05:35;99075.38;;;8.38;69.94
69911;BME280;63555;49.920;17.868;2024-03-08T12:10:36;99071.34;;;8.75;68.61
69911;BME280;63555;49.920;17.868;2024-03-08T12:15:36;99063.88;;;8.96;68.63
69911;BME280;63555;49.920;17.868;2024-03-08T12:20:37;99057.72;;;9.49;66.79
69911;BME280;63555;49.920;17.868;2024-03-08T12:25:39;99051.06;;;10.08;65.56
69911;BME280;63555;49.920;17.868;2024-03-08T12:30:47;99051.34;;;10.80;64.45
69911;BME280;63555;49.920;17.868;2024-03-08T12:35:54;99044.97;;;11.43;63.11
69911;BME280;63555;49.920;17.868;2024-03-08T12:40:57;99031.69;;;12.13;61.86
69911;BME280;63555;49.920;17.868;2024-03-08T12:45:58;99025.25;;;12.94;60.16
69911;BME280;63555;49.920;17.868;2024-03-08T12:50:58;99015.28;;;14.24;57.75
69911;BME280;63555;49.920;17.868;2024-03-08T12:55:59;99003.81;;;14.94;55.34
69911;BME280;63555;49.920;17.868;2024-03-08T13:00:59;99009.59;;;14.38;55.74
69911;BME280;63555;49.920;17.868;2024-03-08T13:06:00;99000.59;;;15.10;53.09
69911;BME280;63555;49.920;17.868;2024-03-08T13:11:01;98991.97;;;15.66;51.51
69911;BME280;63555;49.920;17.868;2024-03-08T13:16:02;98991.16;;;16.49;49.37
69911;BME280;63555;49.920;17.868;2024-03-08T13:21:04;98983.19;;;16.76;47.66
69911;BME280;63555;49.920;17.868;2024-03-08T13:26:08;98989.19;;;16.51;47.41
69911;BME280;63555;49.920;17.868;2024-03-08T13:31:09;98986.34;;;15.40;48.19
69911;BME280;63555;49.920;17.868;2024-03-08T13:36:15;98982.97;;;15.38;48.26
69911;BME280;63555;49.920;17.868;2024-03-08T13:41:16;98980.75;;;16.55;45.97
69911;BME280;63555;49.920;17.868;2024-03-08T13:46:17;98974.97;;;17.59;44.65
69911;BME280;63555;49.920;17.868;2024-03-08T13:51:17;98965.66;;;18.06;43.24
69911;BME280;63555;49.920;17.868;2024-03-08T13:56:18;98962.78;;;18.26;43.39
69911;BME280;63555;49.920;17.868;2024-03-08T14:01:18;98967.31;;;17.20;44.67
69911;BME280;63555;49.920;17.868;2024-03-08T14:06:21;98963.16;;;16.08;46.11
69911;BME280;63555;49.920;17.868;2024-03-08T14:11:24;98961.59;;;15.01;47.71
69911;BME280;63555;49.920;17.868;2024-03-08T14:16:24;98952.78;;;15.29;47.29
69911;BME280;63555;49.920;17.868;2024-03-08T14:21:25;98957.69;;;15.63;46.79
69911;BME280;63555;49.920;17.868;2024-03-08T14:26:26;98952.38;;;15.24;47.02
69911;BME280;63555;49.920;17.868;2024-03-08T14:31:26;98944.78;;;15.48;46.18
69911;BME280;63555;49.920;17.868;2024-03-08T14:36:28;98939.63;;;15.37;45.66
69911;BME280;63555;49.920;17.868;2024-03-08T14:41:28;98942.88;;;14.92;46.44
69911;BME280;63555;49.920;17.868;2024-03-08T14:46:30;98933.72;;;14.56;47.36
69911;BME280;63555;49.920;17.868;2024-03-08T14:51:30;98933.31;;;14.21;47.47
69911;BME280;63555;49.920;17.868;2024-03-08T14:56:32;98929.56;;;13.42;48.33
69911;BME280;63555;49.920;17.868;2024-03-08T15:01:33;98924.06;;;12.15;49.91
69911;BME280;63555;49.920;17.868;2024-03-08T15:06:39;98923.53;;;11.19;51.77
69911;BME280;63555;49.920;17.868;2024-03-08T15:11:41;98921.00;;;10.59;53.05
69911;BME280;63555;49.920;17.868;2024-03-08T15:16:42;98926.56;;;10.17;53.46
69911;BME280;63555;49.920;17.868;2024-03-08T15:21:46;98918.53;;;9.82;54.09
69911;BME280;63555;49.920;17.868;2024-03-08T15:26:48;98914.75;;;9.74;53.77
69911;BME280;63555;49.920;17.868;2024-03-08T15:31:54;98916.41;;;9.87;53.95
69911;BME280;63555;49.920;17.868;2024-03-08T15:36:54;98912.03;;;10.25;53.09
69911;BME280;63555;49.920;17.868;2024-03-08T15:41:58;98909.63;;;10.58;52.33
69911;BME280;63555;49.920;17.868;2024-03-08T15:46:58;98909.28;;;10.63;52.45
69911;BME280;63555;49.920;17.868;2024-03-08T15:51:58;98903.81;;;10.29;52.76
69911;BME280;63555;49.920;17.868;2024-03-08T15:56:59;98911.38;;;9.46;54.35
69911;BME280;63555;49.920;17.868;2024-03-08T16:01:59;98907.03;;;8.68;56.02
69911;BME280;63555;49.920;17.868;2024-03-08T16:07:00;98912.41;;;8.11;56.90
69911;BME280;63555;49.920;17.868;2024-03-08T16:12:00;98913.75;;;7.47;58.14
69911;BME280;63555;49.920;17.868;2024-03-08T16:17:01;98915.72;;;6.99;59.63
69911;BME280;63555;49.920;17.868;2024-03-08T16:22:01;98909.16;;;6.46;60.23
69911;BME280;63555;49.920;17.868;2024-03-08T16:27:01;98909.44;;;6.10;60.86
69911;BME280;63555;49.920;17.868;2024-03-08T16:32:04;98909.44;;;5.77;61.78
69911;BME280;63555;49.920;17.868;2024-03-08T16:37:05;98912.00;;;5.46;62.13
69911;BME280;63555;49.920;17.868;2024-03-08T16:42:06;98905.00;;;5.11;62.61
69911;BME280;63555;49.920;17.868;2024-03-08T16:47:07;98909.41;;;4.76;63.58
69911;BME280;63555;49.920;17.868;2024-03-08T16:52:08;98910.53;;;4.54;64.08
69911;BME280;63555;49.920;17.868;2024-03-08T16:57:08;98902.25;;;4.27;64.38
69911;BME280;63555;49.920;17.868;2024-03-08T17:02:14;98912.44;;;3.95;65.06
69911;BME280;63555;49.920;17.868;2024-03-08T17:07:14;98905.81;;;3.69;65.46
69911;BME280;63555;49.920;17.868;2024-03-08T17:12:15;98909.50;;;3.45;65.89
69911;BME280;63555;49.920;17.868;2024-03-08T17:17:19;98913.31;;;3.17;66.57
69911;BME280;63555;49.920;17.868;2024-03-08T17:22:20;98911.69;;;2.95;67.20
69911;BME280;63555;49.920;17.868;2024-03-08T17:27:21;98916.03;;;2.74;67.40
69911;BME280;63555;49.920;17.868;2024-03-08T17:32:24;98913.25;;;2.56;67.57
69911;BME280;63555;49.920;17.868;2024-03-08T17:37:25;98914.25;;;2.32;68.32
69911;BME280;63555;49.920;17.868;2024-03-08T17:42:25;98914.00;;;2.16;68.67
69911;BME280;63555;49.920;17.868;2024-03-08T17:47:26;98911.59;;;2.12;69.42
69911;BME280;63555;49.920;17.868;2024-03-08T17:52:26;98915.50;;;2.00;69.49
69911;BME280;63555;49.920;17.868;2024-03-08T17:57:27;98910.78;;;1.88;69.73
69911;BME280;63555;49.920;17.868;2024-03-08T18:02:27;98912.16;;;1.75;70.37
69911;BME280;63555;49.920;17.868;2024-03-08T18:07:28;98911.56;;;1.67;70.60
69911;BME280;63555;49.920;17.868;2024-03-08T18:12:29;98911.28;;;1.51;70.48
69911;BME280;63555;49.920;17.868;2024-03-08T18:17:31;98910.25;;;1.32;70.80
69911;BME280;63555;49.920;17.868;2024-03-08T18:22:33;98910.00;;;1.14;71.57
69911;BME280;63555;49.920;17.868;2024-03-08T18:27:33;98919.94;;;1.03;72.46
69911;BME280;63555;49.920;17.868;2024-03-08T18:32:33;98911.75;;;0.89;72.29
69911;BME280;63555;49.920;17.868;2024-03-08T18:37:34;98909.44;;;0.80;72.68
69911;BME280;63555;49.920;17.868;2024-03-08T18:42:34;98909.75;;;0.71;72.72
69911;BME280;63555;49.920;17.868;2024-03-08T18:47:35;98906.53;;;0.64;72.91
69911;BME280;63555;49.920;17.868;2024-03-08T18:52:36;98892.31;;;0.49;73.10
69911;BME280;63555;49.920;17.868;2024-03-08T18:57:37;98906.69;;;0.33;73.95
69911;BME280;63555;49.920;17.868;2024-03-08T19:02:40;98894.06;;;0.22;73.80
69911;BME280;63555;49.920;17.868;2024-03-08T19:07:42;98891.59;;;0.18;74.19
69911;BME280;63555;49.920;17.868;2024-03-08T19:12:43;98892.47;;;0.18;74.13
69911;BME280;63555;49.920;17.868;2024-03-08T19:17:48;98888.25;;;0.14;74.32
69911;BME280;63555;49.920;17.868;2024-03-08T19:22:57;98888.47;;;0.08;74.77
69911;BME280;63555;49.920;17.868;2024-03-08T19:28:03;98883.47;;;0.02;74.55
69911;BME280;63555;49.920;17.868;2024-03-08T19:33:06;98891.69;;;-0.13;75.36
69911;BME280;63555;49.920;17.868;2024-03-08T19:38:13;98892.81;;;-0.22;75.48
69911;BME280;63555;49.920;17.868;2024-03-08T19:43:15;98884.47;;;-0.32;75.60
69911;BME280;63555;49.920;17.868;2024-03-08T19:48:15;98882.94;;;-0.39;75.74
69911;BME280;63555;49.920;17.868;2024-03-08T19:53:16;98883.19;;;-0.46;75.74
69911;BME280;63555;49.920;17.868;2024-03-08T19:58:16;98882.59;;;-0.56;75.99
69911;BME280;63555;49.920;17.868;2024-03-08T20:03:17;98881.94;;;-0.62;76.14
69911;BME280;63555;49.920;17.868;2024-03-08T20:08:21;98873.72;;;-0.77;76.39
69911;BME280;63555;49.920;17.868;2024-03-08T20:13:23;98877.50;;;-0.90;76.78
69911;BME280;63555;49.920;17.868;2024-03-08T20:18:23;98880.34;;;-0.99;76.88
69911;BME280;63555;49.920;17.868;2024-03-08T20:23:26;98875.25;;;-1.02;77.24
69911;BME280;63555;49.920;17.868;2024-03-08T20:28:26;98871.97;;;-1.09;77.36
69911;BME280;63555;49.920;17.868;2024-03-08T20:33:26;98872.16;;;-1.15;77.80
69911;BME280;63555;49.920;17.868;2024-03-08T20:38:27;98862.81;;;-1.20;78.07
69911;BME280;63555;49.920;17.868;2024-03-08T20:43:27;98873.31;;;-1.26;78.34
69911;BME280;63555;49.920;17.868;2024-03-08T20:48:27;98862.16;;;-1.29;79.02
69911;BME280;63555;49.920;17.868;2024-03-08T20:53:28;98856.91;;;-1.25;79.40
69911;BME280;63555;49.920;17.868;2024-03-08T20:58:28;98857.78;;;-1.26;78.63
69911;BME280;63555;49.920;17.868;2024-03-08T21:03:29;98854.66;;;-1.38;78.21
69911;BME280;63555;49.920;17.868;2024-03-08T21:08:31;98854.03;;;-1.47;78.50
69911;BME280;63555;49.920;17.868;2024-03-08T21:13:34;98855.81;;;-1.49;78.88
69911;BME280;63555;49.920;17.868;2024-03-08T21:18:36;98857.72;;;-1.56;79.24
69911;BME280;63555;49.920;17.868;2024-03-08T21:23:36;98854.16;;;-1.52;81.02
69911;BME280;63555;49.920;17.868;2024-03-08T21:28:37;98844.94;;;-1.30;81.98
69911;BME280;63555;49.920;17.868;2024-03-08T21:33:38;98840.66;;;-1.00;82.07
69911;BME280;63555;49.920;17.868;2024-03-08T21:38:38;98831.31;;;-0.73;81.81
69911;BME280;63555;49.920;17.868;2024-03-08T21:43:39;98834.19;;;-0.54;82.21
69911;BME280;63555;49.920;17.868;2024-03-08T21:48:39;98828.31;;;-0.31;81.85
69911;BME280;63555;49.920;17.868;2024-03-08T21:53:39;98824.34;;;-0.15;81.66
69911;BME280;63555;49.920;17.868;2024-03-08T21:58:40;98829.09;;;0.01;81.98
69911;BME280;63555;49.920;17.868;2024-03-08T22:03:41;98820.09;;;0.11;81.65
69911;BME280;63555;49.920;17.868;2024-03-08T22:08:43;98816.47;;;0.16;82.03
69911;BME280;63555;49.920;17.868;2024-03-08T22:13:43;98811.03;;;0.24;81.83
69911;BME280;63555;49.920;17.868;2024-03-08T22:18:48;98813.41;;;0.30;82.52
69911;BME280;63555;49.920;17.868;2024-03-08T22:23:48;98795.84;;;0.38;82.68
69911;BME280;63555;49.920;17.868;2024-03-08T22:28:49;98795.53;;;0.47;82.70
69911;BME280;63555;49.920;17.868;2024-03-08T22:33:52;98799.81;;;0.48;82.88
69911;BME280;63555;49.920;17.868;2024-03-08T22:38:53;98779.66;;;0.56;82.83
69911;BME280;63555;49.920;17.868;2024-03-08T22:43:53;98778.59;;;0.62;82.90
69911;BME280;63555;49.920;17.868;2024-03-08T22:48:54;98771.38;;;0.70;83.39
69911;BME280;63555;49.920;17.868;2024-03-08T22:53:54;98769.41;;;0.77;82.85
69911;BME280;63555;49.920;17.868;2024-03-08T22:58:55;98773.63;;;0.79;83.15
69911;BME280;63555;49.920;17.868;2024-03-08T23:03:56;98776.84;;;0.86;82.85
69911;BME280;63555;49.920;17.868;2024-03-08T23:08:56;98767.97;;;0.93;82.96
69911;BME280;63555;49.920;17.868;2024-03-08T23:13:57;98765.94;;;1.01;82.97
69911;BME280;63555;49.920;17.868;2024-03-08T23:18:57;98762.50;;;1.01;83.17
69911;BME280;63555;49.920;17.868;2024-03-08T23:23:57;98756.34;;;1.03;83.59
69911;BME280;63555;49.920;17.868;2024-03-08T23:28:58;98756.84;;;0.89;82.24
69911;BME280;63555;49.920;17.868;2024-03-08T23:33:59;98760.41;;;0.62;81.03
69911;BME280;63555;49.920;17.868;2024-03-08T23:39:00;98758.78;;;0.35;81.19
69911;BME280;63555;49.920;17.868;2024-03-08T23:44:00;98752.53;;;0.15;82.61
69911;BME280;63555;49.920;17.868;2024-03-08T23:49:02;98744.63;;;0.20;83.86
69911;BME280;63555;49.920;17.868;2024-03-08T23:54:03;98753.59;;;0.35;85.10
69911;BME280;63555;49.920;17.868;2024-03-08T23:59:04;98745.28;;;0.50;84.86
